sensor_id;sensor_type;location;lat;lon;timestamp;pressure;altitude;pressure_sealevel;temperature;humidity
76378;BME280;65200;49.500;8.654;2023-07-13T00:02:10;100392.78;;;20.68;51.18
76378;BME280;65200;49.500;8.654;2023-07-13T00:04:37;100394.38;;;20.64;50.62
76378;BME280;65200;49.500;8.654;2023-07-13T00:07:05;100395.56;;;20.73;51.49
76378;BME280;65200;49.500;8.654;2023-07-13T00:09:31;100397.78;;;20.76;50.48
76378;BME280;65200;49.500;8.654;2023-07-13T00:11:58;100402.03;;;20.67;52.79
76378;BME280;65200;49.500;8.654;2023-07-13T00:14:25;100393.16;;;20.77;53.83
76378;BME280;65200;49.500;8.654;2023-07-13T00:16:52;100402.34;;;20.71;51.78
76378;BME280;65200;49.500;8.654;2023-07-13T00:19:18;100404.94;;;20.61;51.89
76378;BME280;65200;49.500;8.654;2023-07-13T00:21:45;100406.75;;;20.50;51.48
76378;BME280;65200;49.500;8.654;2023-07-13T00:24:16;100407.75;;;20.44;50.98
76378;BME280;65200;49.500;8.654;2023-07-13T00:26:48;100408.13;;;20.53;52.02
76378;BME280;65200;49.500;8.654;2023-07-13T00:29:15;100412.25;;;20.55;50.38
76378;BME280;65200;49.500;8.654;2023-07-13T00:31:41;100415.56;;;20.57;50.19
76378;BME280;65200;49.500;8.654;2023-07-13T00:34:09;100412.94;;;20.46;48.46
76378;BME280;65200;49.500;8.654;2023-07-13T00:36:35;100402.88;;;20.46;48.19
76378;BME280;65200;49.500;8.654;2023-07-13T00:39:02;100403.88;;;20.40;48.18
76378;BME280;65200;49.500;8.654;2023-07-13T00:41:31;100400.34;;;20.18;49.16
76378;BME280;65200;49.500;8.654;2023-07-13T00:43:57;100401.19;;;19.85;53.05
76378;BME280;65200;49.500;8.654;2023-07-13T00:46:26;100399.56;;;19.51;54.23
76378;BME280;65200;49.500;8.654;2023-07-13T00:48:54;100405.50;;;19.32;54.67
76378;BME280;65200;49.500;8.654;2023-07-13T00:51:28;100407.56;;;19.13;55.92
76378;BME280;65200;49.500;8.654;2023-07-13T00:53:59;100399.38;;;18.96;55.77
76378;BME280;65200;49.500;8.654;2023-07-13T00:56:27;100400.47;;;18.95;55.40
76378;BME280;65200;49.500;8.654;2023-07-13T00:58:55;100393.34;;;18.78;55.05
76378;BME280;65200;49.500;8.654;2023-07-13T01:01:22;100399.94;;;18.82;56.58
76378;BME280;65200;49.500;8.654;2023-07-13T01:03:49;100400.66;;;18.77;54.93
76378;BME280;65200;49.500;8.654;2023-07-13T01:06:15;100401.34;;;18.84;56.45
76378;BME280;65200;49.500;8.654;2023-07-13T01:08:43;100408.47;;;18.74;55.74
76378;BME280;65200;49.500;8.654;2023-07-13T01:11:09;100403.31;;;18.61;55.44
76378;BME280;65200;49.500;8.654;2023-07-13T01:13:36;100401.53;;;18.66;56.66
76378;BME280;65200;49.500;8.654;2023-07-13T01:16:09;100398.22;;;18.64;55.13
76378;BME280;65200;49.500;8.654;2023-07-13T01:18:38;100413.28;;;18.55;57.20
76378;BME280;65200;49.500;8.654;2023-07-13T01:21:06;100410.00;;;18.42;56.85
76378;BME280;65200;49.500;8.654;2023-07-13T01:23:33;100413.53;;;18.31;56.58
76378;BME280;65200;49.500;8.654;2023-07-13T01:26:00;100407.75;;;18.27;56.73
76378;BME280;65200;49.500;8.654;2023-07-13T01:28:27;100412.22;;;18.22;57.53
76378;BME280;65200;49.500;8.654;2023-07-13T01:30:55;100419.44;;;18.39;57.19
76378;BME280;65200;49.500;8.654;2023-07-13T01:33:22;100403.59;;;18.36;57.14
76378;BME280;65200;49.500;8.654;2023-07-13T01:35:49;100413.28;;;18.44;57.69
76378;BME280;65200;49.500;8.654;2023-07-13T01:38:19;100402.91;;;18.29;56.97
76378;BME280;65200;49.500;8.654;2023-07-13T01:40:46;100413.09;;;18.11;59.03
76378;BME280;65200;49.500;8.654;2023-07-13T01:43:13;100419.59;;;18.10;57.86
76378;BME280;65200;49.500;8.654;2023-07-13T01:45:39;100425.84;;;17.99;59.01
76378;BME280;65200;49.500;8.654;2023-07-13T01:48:05;100433.84;;;17.82;61.38
76378;BME280;65200;49.500;8.654;2023-07-13T01:50:32;100418.16;;;17.61;59.93
76378;BME280;65200;49.500;8.654;2023-07-13T01:52:59;100418.38;;;17.71;59.49
76378;BME280;65200;49.500;8.654;2023-07-13T01:55:28;100430.50;;;17.45;62.46
76378;BME280;65200;49.500;8.654;2023-07-13T01:57:55;100430.41;;;17.52;61.08
76378;BME280;65200;49.500;8.654;2023-07-13T02:00:21;100431.59;;;17.56;59.96
76378;BME280;65200;49.500;8.654;2023-07-13T02:02:48;100435.00;;;17.51;61.32
76378;BME280;65200;49.500;8.654;2023-07-13T02:05:15;100438.91;;;17.55;60.58
76378;BME280;65200;49.500;8.654;2023-07-13T02:07:41;100443.34;;;17.50;59.01
76378;BME280;65200;49.500;8.654;2023-07-13T02:10:09;100439.84;;;17.49;60.43
76378;BME280;65200;49.500;8.654;2023-07-13T02:12:38;100442.19;;;17.46;61.98
76378;BME280;65200;49.500;8.654;2023-07-13T02:15:05;100440.81;;;17.37;61.47
76378;BME280;65200;49.500;8.654;2023-07-13T02:17:32;100451.22;;;17.40;61.87
76378;BME280;65200;49.500;8.654;2023-07-13T02:19:58;100453.66;;;17.30;62.14
76378;BME280;65200;49.500;8.654;2023-07-13T02:22:25;100454.25;;;17.32;61.31
76378;BME280;65200;49.500;8.654;2023-07-13T02:24:51;100446.91;;;17.50;59.52
76378;BME280;65200;49.500;8.654;2023-07-13T02:27:18;100454.56;;;17.53;59.37
76378;BME280;65200;49.500;8.654;2023-07-13T02:29:45;100454.09;;;17.45;59.82
76378;BME280;65200;49.500;8.654;2023-07-13T02:32:12;100449.97;;;17.24;62.63
76378;BME280;65200;49.500;8.654;2023-07-13T02:34:40;100446.47;;;17.35;61.77
76378;BME280;65200;49.500;8.654;2023-07-13T02:37:06;100450.06;;;17.47;60.23
76378;BME280;65200;49.500;8.654;2023-07-13T02:39:33;100442.25;;;17.39;61.37
76378;BME280;65200;49.500;8.654;2023-07-13T02:41:59;100439.72;;;17.15;62.70
76378;BME280;65200;49.500;8.654;2023-07-13T02:44:26;100444.84;;;17.05;63.09
76378;BME280;65200;49.500;8.654;2023-07-13T02:46:54;100448.03;;;17.02;61.78
76378;BME280;65200;49.500;8.654;2023-07-13T02:49:20;100451.94;;;17.06;62.15
76378;BME280;65200;49.500;8.654;2023-07-13T02:51:47;100451.16;;;17.17;61.19
76378;BME280;65200;49.500;8.654;2023-07-13T02:54:13;100454.19;;;17.09;62.55
76378;BME280;65200;49.500;8.654;2023-07-13T02:56:40;100465.34;;;17.01;62.90
76378;BME280;65200;49.500;8.654;2023-07-13T02:59:08;100453.66;;;17.00;61.95
76378;BME280;65200;49.500;8.654;2023-07-13T03:01:35;100456.09;;;16.90;62.95
76378;BME280;65200;49.500;8.654;2023-07-13T03:04:03;100463.19;;;17.03;62.31
76378;BME280;65200;49.500;8.654;2023-07-13T03:06:30;100459.19;;;16.94;61.39
76378;BME280;65200;49.500;8.654;2023-07-13T03:08:57;100461.81;;;16.82;61.63
76378;BME280;65200;49.500;8.654;2023-07-13T03:11:23;100460.19;;;16.81;63.37
76378;BME280;65200;49.500;8.654;2023-07-13T03:13:50;100460.28;;;16.75;62.89
76378;BME280;65200;49.500;8.654;2023-07-13T03:16:16;100463.28;;;16.85;63.09
76378;BME280;65200;49.500;8.654;2023-07-13T03:18:43;100463.69;;;16.82;62.78
76378;BME280;65200;49.500;8.654;2023-07-13T03:21:11;100462.84;;;16.70;63.15
76378;BME280;65200;49.500;8.654;2023-07-13T03:23:38;100453.66;;;16.53;64.51
76378;BME280;65200;49.500;8.654;2023-07-13T03:26:07;100449.00;;;16.60;64.83
76378;BME280;65200;49.500;8.654;2023-07-13T03:28:34;100449.47;;;16.57;64.99
76378;BME280;65200;49.500;8.654;2023-07-13T03:31:02;100454.09;;;16.31;65.79
76378;BME280;65200;49.500;8.654;2023-07-13T03:33:30;100461.47;;;16.24;65.79
76378;BME280;65200;49.500;8.654;2023-07-13T03:35:56;100459.13;;;16.28;65.62
76378;BME280;65200;49.500;8.654;2023-07-13T03:38:25;100468.59;;;16.19;66.39
76378;BME280;65200;49.500;8.654;2023-07-13T03:40:51;100456.78;;;16.13;66.72
76378;BME280;65200;49.500;8.654;2023-07-13T03:43:18;100466.72;;;16.19;66.18
76378;BME280;65200;49.500;8.654;2023-07-13T03:45:46;100461.59;;;16.29;68.10
76378;BME280;65200;49.500;8.654;2023-07-13T03:48:12;100466.38;;;15.91;68.30
76378;BME280;65200;49.500;8.654;2023-07-13T03:50:39;100472.28;;;15.57;70.18
76378;BME280;65200;49.500;8.654;2023-07-13T03:53:07;100474.75;;;15.59;69.98
76378;BME280;65200;49.500;8.654;2023-07-13T03:55:35;100473.84;;;15.40;71.38
76378;BME280;65200;49.500;8.654;2023-07-13T03:58:23;100470.53;;;15.38;70.57
76378;BME280;65200;49.500;8.654;2023-07-13T04:00:51;100470.72;;;15.68;69.79
76378;BME280;65200;49.500;8.654;2023-07-13T04:03:17;100469.84;;;15.74;70.37
76378;BME280;65200;49.500;8.654;2023-07-13T04:05:44;100466.88;;;15.57;69.71
76378;BME280;65200;49.500;8.654;2023-07-13T04:08:11;100471.59;;;15.62;70.17
76378;BME280;65200;49.500;8.654;2023-07-13T04:10:39;100470.25;;;15.77;69.23
76378;BME280;65200;49.500;8.654;2023-07-13T04:13:05;100475.38;;;15.85;69.04
76378;BME280;65200;49.500;8.654;2023-07-13T04:15:32;100473.34;;;15.99;68.68
76378;BME280;65200;49.500;8.654;2023-07-13T04:17:59;100467.50;;;16.02;69.58
76378;BME280;65200;49.500;8.654;2023-07-13T04:20:26;100478.25;;;16.08;70.08
76378;BME280;65200;49.500;8.654;2023-07-13T04:22:52;100482.84;;;16.08;69.73
76378;BME280;65200;49.500;8.654;2023-07-13T04:25:20;100481.34;;;15.87;71.06
76378;BME280;65200;49.500;8.654;2023-07-13T04:27:47;100487.38;;;15.89;71.03
76378;BME280;65200;49.500;8.654;2023-07-13T04:30:14;100489.16;;;15.77;71.39
76378;BME280;65200;49.500;8.654;2023-07-13T04:32:41;100501.44;;;15.73;71.79
76378;BME280;65200;49.500;8.654;2023-07-13T04:35:08;100503.25;;;15.79;70.07
76378;BME280;65200;49.500;8.654;2023-07-13T04:37:34;100498.97;;;15.96;70.41
76378;BME280;65200;49.500;8.654;2023-07-13T04:40:01;100503.81;;;15.88;70.66
76378;BME280;65200;49.500;8.654;2023-07-13T04:42:28;100494.84;;;15.69;71.27
76378;BME280;65200;49.500;8.654;2023-07-13T04:44:56;100490.97;;;15.83;69.70
76378;BME280;65200;49.500;8.654;2023-07-13T04:47:23;100498.50;;;15.99;69.53
76378;BME280;65200;49.500;8.654;2023-07-13T04:49:49;100498.97;;;15.96;69.28
76378;BME280;65200;49.500;8.654;2023-07-13T04:52:16;100494.66;;;15.89;70.29
76378;BME280;65200;49.500;8.654;2023-07-13T04:54:42;100499.69;;;16.10;70.29
76378;BME280;65200;49.500;8.654;2023-07-13T04:57:09;100508.59;;;15.86;71.27
76378;BME280;65200;49.500;8.654;2023-07-13T04:59:35;100507.06;;;16.21;71.69
76378;BME280;65200;49.500;8.654;2023-07-13T05:02:04;100512.84;;;16.24;71.08
76378;BME280;65200;49.500;8.654;2023-07-13T05:04:30;100514.28;;;16.02;71.57
76378;BME280;65200;49.500;8.654;2023-07-13T05:06:57;100517.09;;;15.89;73.37
76378;BME280;65200;49.500;8.654;2023-07-13T05:09:23;100514.78;;;15.93;73.16
76378;BME280;65200;49.500;8.654;2023-07-13T05:11:50;100511.06;;;16.12;71.82
76378;BME280;65200;49.500;8.654;2023-07-13T05:14:16;100523.91;;;15.98;72.66
76378;BME280;65200;49.500;8.654;2023-07-13T05:16:43;100512.66;;;16.01;72.79
76378;BME280;65200;49.500;8.654;2023-07-13T05:19:12;100526.44;;;15.93;74.96
76378;BME280;65200;49.500;8.654;2023-07-13T05:21:38;100525.44;;;15.88;77.49
76378;BME280;65200;49.500;8.654;2023-07-13T05:24:06;100523.53;;;16.37;75.51
76378;BME280;65200;49.500;8.654;2023-07-13T05:26:33;100530.88;;;16.55;73.77
76378;BME280;65200;49.500;8.654;2023-07-13T05:28:59;100529.13;;;16.36;73.48
76378;BME280;65200;49.500;8.654;2023-07-13T05:31:25;100527.78;;;16.70;74.14
76378;BME280;65200;49.500;8.654;2023-07-13T05:33:53;100535.06;;;16.87;71.99
76378;BME280;65200;49.500;8.654;2023-07-13T05:36:21;100529.50;;;17.00;73.70
76378;BME280;65200;49.500;8.654;2023-07-13T05:38:47;100536.91;;;17.05;68.06
76378;BME280;65200;49.500;8.654;2023-07-13T05:41:14;100530.78;;;16.98;70.64
76378;BME280;65200;49.500;8.654;2023-07-13T05:43:40;100532.34;;;17.35;69.80
76378;BME280;65200;49.500;8.654;2023-07-13T05:46:07;100536.09;;;17.34;69.27
76378;BME280;65200;49.500;8.654;2023-07-13T05:48:33;100535.38;;;17.45;67.00
76378;BME280;65200;49.500;8.654;2023-07-13T05:51:00;100540.41;;;17.41;64.95
76378;BME280;65200;49.500;8.654;2023-07-13T05:53:29;100547.53;;;17.54;64.18
76378;BME280;65200;49.500;8.654;2023-07-13T05:55:56;100542.88;;;17.43;65.75
76378;BME280;65200;49.500;8.654;2023-07-13T05:58:22;100558.38;;;17.36;66.76
76378;BME280;65200;49.500;8.654;2023-07-13T06:00:58;100546.22;;;17.45;64.92
76378;BME280;65200;49.500;8.654;2023-07-13T06:03:25;100551.41;;;17.58;64.89
76378;BME280;65200;49.500;8.654;2023-07-13T06:05:52;100563.56;;;17.55;63.21
76378;BME280;65200;49.500;8.654;2023-07-13T06:08:18;100560.84;;;17.55;62.98
76378;BME280;65200;49.500;8.654;2023-07-13T06:10:46;100564.41;;;17.38;64.70
76378;BME280;65200;49.500;8.654;2023-07-13T06:13:13;100569.44;;;17.34;65.16
76378;BME280;65200;49.500;8.654;2023-07-13T06:15:39;100572.31;;;17.39;64.80
76378;BME280;65200;49.500;8.654;2023-07-13T06:18:06;100576.13;;;17.50;67.15
76378;BME280;65200;49.500;8.654;2023-07-13T06:20:33;100572.38;;;17.51;67.32
76378;BME280;65200;49.500;8.654;2023-07-13T06:23:01;100569.22;;;17.54;66.43
76378;BME280;65200;49.500;8.654;2023-07-13T06:25:27;100572.81;;;17.77;65.87
76378;BME280;65200;49.500;8.654;2023-07-13T06:27:55;100579.09;;;17.90;65.64
76378;BME280;65200;49.500;8.654;2023-07-13T06:30:21;100578.06;;;18.02;63.76
76378;BME280;65200;49.500;8.654;2023-07-13T06:32:48;100583.13;;;18.10;63.13
76378;BME280;65200;49.500;8.654;2023-07-13T06:35:15;100579.88;;;18.20;60.46
76378;BME280;65200;49.500;8.654;2023-07-13T06:37:41;100585.75;;;18.17;60.59
76378;BME280;65200;49.500;8.654;2023-07-13T06:40:09;100585.19;;;18.15;58.55
76378;BME280;65200;49.500;8.654;2023-07-13T06:42:35;100599.09;;;18.30;56.41
76378;BME280;65200;49.500;8.654;2023-07-13T06:45:06;100600.09;;;18.47;58.44
76378;BME280;65200;49.500;8.654;2023-07-13T06:47:32;100604.81;;;18.63;59.03
76378;BME280;65200;49.500;8.654;2023-07-13T06:49:59;100610.00;;;18.64;57.79
76378;BME280;65200;49.500;8.654;2023-07-13T06:52:26;100606.81;;;18.67;56.43
76378;BME280;65200;49.500;8.654;2023-07-13T06:54:55;100607.16;;;18.82;54.85
76378;BME280;65200;49.500;8.654;2023-07-13T06:57:22;100601.13;;;18.80;54.79
76378;BME280;65200;49.500;8.654;2023-07-13T06:59:49;100601.00;;;18.87;54.58
76378;BME280;65200;49.500;8.654;2023-07-13T07:02:17;100598.75;;;18.95;54.90
76378;BME280;65200;49.500;8.654;2023-07-13T07:04:43;100611.25;;;19.08;53.25
76378;BME280;65200;49.500;8.654;2023-07-13T07:07:10;100611.56;;;19.35;53.78
76378;BME280;65200;49.500;8.654;2023-07-13T07:09:36;100607.91;;;19.29;53.04
76378;BME280;65200;49.500;8.654;2023-07-13T07:12:04;100614.03;;;19.36;52.08
76378;BME280;65200;49.500;8.654;2023-07-13T07:14:31;100603.50;;;19.40;52.51
76378;BME280;65200;49.500;8.654;2023-07-13T07:16:59;100615.75;;;19.54;52.54
76378;BME280;65200;49.500;8.654;2023-07-13T07:19:27;100613.41;;;20.02;51.06
76378;BME280;65200;49.500;8.654;2023-07-13T07:21:54;100611.22;;;20.49;50.27
76378;BME280;65200;49.500;8.654;2023-07-13T07:24:20;100622.22;;;21.56;47.54
76378;BME280;65200;49.500;8.654;2023-07-13T07:26:47;100621.59;;;22.56;45.42
76378;BME280;65200;49.500;8.654;2023-07-13T07:29:13;100617.28;;;23.06;44.43
76378;BME280;65200;49.500;8.654;2023-07-13T07:31:39;100618.03;;;23.49;41.84
76378;BME280;65200;49.500;8.654;2023-07-13T07:34:06;100617.44;;;23.37;42.41
76378;BME280;65200;49.500;8.654;2023-07-13T07:36:34;100618.22;;;23.32;42.48
76378;BME280;65200;49.500;8.654;2023-07-13T07:39:00;100609.91;;;23.74;40.91
76378;BME280;65200;49.500;8.654;2023-07-13T07:41:27;100611.63;;;24.05;40.14
76378;BME280;65200;49.500;8.654;2023-07-13T07:43:54;100608.88;;;24.30;39.98
76378;BME280;65200;49.500;8.654;2023-07-13T07:46:20;100609.44;;;24.52;39.52
76378;BME280;65200;49.500;8.654;2023-07-13T07:48:47;100612.91;;;25.08;38.01
76378;BME280;65200;49.500;8.654;2023-07-13T07:51:13;100613.25;;;24.91;37.90
76378;BME280;65200;49.500;8.654;2023-07-13T07:53:41;100611.28;;;24.97;37.62
76378;BME280;65200;49.500;8.654;2023-07-13T07:56:08;100620.94;;;24.19;39.39
76378;BME280;65200;49.500;8.654;2023-07-13T07:58:35;100617.13;;;24.50;38.13
76378;BME280;65200;49.500;8.654;2023-07-13T08:01:02;100623.28;;;25.21;38.29
76378;BME280;65200;49.500;8.654;2023-07-13T08:03:29;100623.75;;;25.53;37.23
76378;BME280;65200;49.500;8.654;2023-07-13T08:05:56;100622.41;;;25.40;37.84
76378;BME280;65200;49.500;8.654;2023-07-13T08:08:22;100624.22;;;25.65;36.87
76378;BME280;65200;49.500;8.654;2023-07-13T08:10:50;100622.09;;;25.47;35.87
76378;BME280;65200;49.500;8.654;2023-07-13T08:13:17;100622.50;;;25.15;37.60
76378;BME280;65200;49.500;8.654;2023-07-13T08:15:43;100627.47;;;24.93;37.99
76378;BME280;65200;49.500;8.654;2023-07-13T08:18:10;100625.13;;;25.45;36.81
76378;BME280;65200;49.500;8.654;2023-07-13T08:20:37;100620.34;;;25.02;38.51
76378;BME280;65200;49.500;8.654;2023-07-13T08:23:04;100618.75;;;24.76;37.61
76378;BME280;65200;49.500;8.654;2023-07-13T08:25:30;100620.91;;;24.99;37.51
76378;BME280;65200;49.500;8.654;2023-07-13T08:27:58;100619.56;;;24.67;38.33
76378;BME280;65200;49.500;8.654;2023-07-13T08:30:25;100619.56;;;24.36;39.47
76378;BME280;65200;49.500;8.654;2023-07-13T08:32:53;100623.66;;;24.04;40.55
76378;BME280;65200;49.500;8.654;2023-07-13T08:35:19;100611.38;;;24.21;39.75
76378;BME280;65200;49.500;8.654;2023-07-13T08:37:45;100609.38;;;25.02;39.98
76378;BME280;65200;49.500;8.654;2023-07-13T08:40:12;100615.97;;;25.65;38.15
76378;BME280;65200;49.500;8.654;2023-07-13T08:42:42;100614.94;;;26.05;36.81
76378;BME280;65200;49.500;8.654;2023-07-13T08:45:19;100610.56;;;26.37;35.98
76378;BME280;65200;49.500;8.654;2023-07-13T08:47:51;100614.09;;;26.04;35.77
76378;BME280;65200;49.500;8.654;2023-07-13T08:50:21;100611.28;;;26.14;34.38
76378;BME280;65200;49.500;8.654;2023-07-13T08:52:49;100612.03;;;26.25;35.67
76378;BME280;65200;49.500;8.654;2023-07-13T08:55:18;100598.31;;;26.53;34.96
76378;BME280;65200;49.500;8.654;2023-07-13T08:57:50;100609.13;;;27.26;33.50
76378;BME280;65200;49.500;8.654;2023-07-13T09:00:21;100609.56;;;26.85;34.08
76378;BME280;65200;49.500;8.654;2023-07-13T09:02:52;100610.78;;;26.74;33.76
76378;BME280;65200;49.500;8.654;2023-07-13T09:05:25;100604.38;;;25.78;35.52
76378;BME280;65200;49.500;8.654;2023-07-13T09:08:16;100602.09;;;26.57;35.87
76378;BME280;65200;49.500;8.654;2023-07-13T09:10:49;100602.03;;;26.00;36.29
76378;BME280;65200;49.500;8.654;2023-07-13T09:13:25;100605.63;;;25.52;35.63
76378;BME280;65200;49.500;8.654;2023-07-13T09:15:59;100602.28;;;25.60;36.42
76378;BME280;65200;49.500;8.654;2023-07-13T09:18:29;100599.38;;;25.85;37.08
76378;BME280;65200;49.500;8.654;2023-07-13T09:21:00;100597.47;;;25.32;37.73
76378;BME280;65200;49.500;8.654;2023-07-13T09:23:29;100605.56;;;23.93;38.07
76378;BME280;65200;49.500;8.654;2023-07-13T09:26:01;100617.22;;;22.96;41.08
76378;BME280;65200;49.500;8.654;2023-07-13T09:28:34;100593.75;;;23.92;39.42
76378;BME280;65200;49.500;8.654;2023-07-13T09:31:07;100600.13;;;24.18;38.71
76378;BME280;65200;49.500;8.654;2023-07-13T09:33:37;100599.56;;;24.71;39.06
76378;BME280;65200;49.500;8.654;2023-07-13T09:36:17;100602.50;;;25.05;36.74
76378;BME280;65200;49.500;8.654;2023-07-13T09:38:45;100591.81;;;24.98;36.28
76378;BME280;65200;49.500;8.654;2023-07-13T09:41:19;100591.78;;;25.13;37.92
76378;BME280;65200;49.500;8.654;2023-07-13T09:44:01;100588.13;;;25.38;36.74
76378;BME280;65200;49.500;8.654;2023-07-13T09:46:29;100592.16;;;25.50;36.87
76378;BME280;65200;49.500;8.654;2023-07-13T09:48:56;100596.50;;;24.98;38.40
76378;BME280;65200;49.500;8.654;2023-07-13T09:51:22;100586.56;;;25.12;38.14
76378;BME280;65200;49.500;8.654;2023-07-13T09:53:49;100589.53;;;25.30;36.98
76378;BME280;65200;49.500;8.654;2023-07-13T09:56:20;100600.28;;;25.12;37.77
76378;BME280;65200;49.500;8.654;2023-07-13T09:58:46;100596.25;;;24.59;38.42
76378;BME280;65200;49.500;8.654;2023-07-13T10:01:13;100592.72;;;24.33;38.69
76378;BME280;65200;49.500;8.654;2023-07-13T10:03:52;100586.69;;;24.82;40.42
76378;BME280;65200;49.500;8.654;2023-07-13T10:06:21;100591.31;;;24.91;37.67
76378;BME280;65200;49.500;8.654;2023-07-13T10:08:49;100591.97;;;25.32;37.81
76378;BME280;65200;49.500;8.654;2023-07-13T10:11:19;100600.75;;;25.29;38.62
76378;BME280;65200;49.500;8.654;2023-07-13T10:13:51;100600.56;;;25.74;38.06
76378;BME280;65200;49.500;8.654;2023-07-13T10:16:18;100599.72;;;25.74;37.82
76378;BME280;65200;49.500;8.654;2023-07-13T10:18:48;100591.78;;;26.16;35.54
76378;BME280;65200;49.500;8.654;2023-07-13T10:21:18;100584.59;;;26.20;36.89
76378;BME280;65200;49.500;8.654;2023-07-13T10:23:49;100585.19;;;25.68;36.45
76378;BME280;65200;49.500;8.654;2023-07-13T10:26:21;100588.19;;;25.18;38.31
76378;BME280;65200;49.500;8.654;2023-07-13T10:28:52;100592.16;;;24.36;38.58
76378;BME280;65200;49.500;8.654;2023-07-13T10:31:21;100597.09;;;24.04;40.27
76378;BME280;65200;49.500;8.654;2023-07-13T10:33:49;100585.88;;;24.01;39.95
76378;BME280;65200;49.500;8.654;2023-07-13T10:36:22;100589.72;;;24.20;39.60
76378;BME280;65200;49.500;8.654;2023-07-13T10:38:51;100594.66;;;24.28;38.78
76378;BME280;65200;49.500;8.654;2023-07-13T10:41:21;100602.03;;;24.73;38.98
76378;BME280;65200;49.500;8.654;2023-07-13T10:43:50;100598.44;;;24.77;38.29
76378;BME280;65200;49.500;8.654;2023-07-13T10:46:20;100596.03;;;24.51;38.19
76378;BME280;65200;49.500;8.654;2023-07-13T10:48:55;100590.00;;;24.33;38.31
76378;BME280;65200;49.500;8.654;2023-07-13T10:51:23;100596.03;;;24.20;38.91
76378;BME280;65200;49.500;8.654;2023-07-13T10:54:10;100596.56;;;24.12;38.57
76378;BME280;65200;49.500;8.654;2023-07-13T10:56:40;100599.28;;;24.63;38.54
76378;BME280;65200;49.500;8.654;2023-07-13T10:59:11;100603.41;;;24.55;37.22
76378;BME280;65200;49.500;8.654;2023-07-13T11:01:40;100602.00;;;24.88;37.19
76378;BME280;65200;49.500;8.654;2023-07-13T11:04:21;100598.97;;;26.12;34.17
76378;BME280;65200;49.500;8.654;2023-07-13T11:06:50;100593.34;;;26.55;33.59
76378;BME280;65200;49.500;8.654;2023-07-13T11:09:31;100584.66;;;25.71;34.91
76378;BME280;65200;49.500;8.654;2023-07-13T11:11:59;100587.84;;;25.29;34.95
76378;BME280;65200;49.500;8.654;2023-07-13T11:14:30;100586.03;;;25.05;34.57
76378;BME280;65200;49.500;8.654;2023-07-13T11:16:57;100588.78;;;25.05;33.84
76378;BME280;65200;49.500;8.654;2023-07-13T11:19:40;100589.72;;;25.49;33.93
76378;BME280;65200;49.500;8.654;2023-07-13T11:22:13;100592.13;;;25.99;33.60
76378;BME280;65200;49.500;8.654;2023-07-13T11:24:57;100585.69;;;27.05;31.22
76378;BME280;65200;49.500;8.654;2023-07-13T11:27:41;100584.81;;;26.57;28.76
76378;BME280;65200;49.500;8.654;2023-07-13T11:30:23;100575.66;;;27.37;27.46
76378;BME280;65200;49.500;8.654;2023-07-13T11:32:51;100567.59;;;26.98;29.06
76378;BME280;65200;49.500;8.654;2023-07-13T11:35:34;100587.25;;;25.91;31.23
76378;BME280;65200;49.500;8.654;2023-07-13T11:38:13;100588.13;;;25.38;33.15
76378;BME280;65200;49.500;8.654;2023-07-13T11:40:43;100582.66;;;25.28;33.21
76378;BME280;65200;49.500;8.654;2023-07-13T11:43:14;100573.53;;;25.47;32.97
76378;BME280;65200;49.500;8.654;2023-07-13T11:45:40;100577.50;;;25.11;32.90
76378;BME280;65200;49.500;8.654;2023-07-13T11:48:18;100577.47;;;25.21;32.30
76378;BME280;65200;49.500;8.654;2023-07-13T11:50:51;100570.97;;;25.02;32.62
76378;BME280;65200;49.500;8.654;2023-07-13T11:53:19;100577.84;;;24.95;34.04
76378;BME280;65200;49.500;8.654;2023-07-13T11:55:47;100572.94;;;25.94;32.86
76378;BME280;65200;49.500;8.654;2023-07-13T11:58:17;100572.50;;;26.21;31.22
76378;BME280;65200;49.500;8.654;2023-07-13T12:00:46;100575.81;;;25.79;31.71
76378;BME280;65200;49.500;8.654;2023-07-13T12:03:18;100571.09;;;25.31;32.32
76378;BME280;65200;49.500;8.654;2023-07-13T12:05:57;100557.81;;;25.63;31.61
76378;BME280;65200;49.500;8.654;2023-07-13T12:08:25;100570.31;;;26.80;31.28
76378;BME280;65200;49.500;8.654;2023-07-13T12:11:04;100574.69;;;26.52;30.49
76378;BME280;65200;49.500;8.654;2023-07-13T12:13:36;100577.94;;;26.54;30.43
76378;BME280;65200;49.500;8.654;2023-07-13T12:16:11;100573.69;;;27.19;30.04
76378;BME280;65200;49.500;8.654;2023-07-13T12:18:38;100575.97;;;27.12;29.17
76378;BME280;65200;49.500;8.654;2023-07-13T12:21:12;100578.00;;;27.49;29.74
76378;BME280;65200;49.500;8.654;2023-07-13T12:23:39;100573.69;;;26.95;30.07
76378;BME280;65200;49.500;8.654;2023-07-13T12:26:09;100580.13;;;27.10;28.25
76378;BME280;65200;49.500;8.654;2023-07-13T12:28:38;100563.25;;;27.58;27.58
76378;BME280;65200;49.500;8.654;2023-07-13T12:31:08;100556.28;;;28.03;26.85
76378;BME280;65200;49.500;8.654;2023-07-13T12:33:46;100566.72;;;29.24;27.04
76378;BME280;65200;49.500;8.654;2023-07-13T12:36:17;100566.31;;;28.12;26.99
76378;BME280;65200;49.500;8.654;2023-07-13T12:38:45;100575.41;;;26.63;29.36
76378;BME280;65200;49.500;8.654;2023-07-13T12:41:12;100580.41;;;26.27;30.52
76378;BME280;65200;49.500;8.654;2023-07-13T12:43:39;100586.16;;;25.92;30.65
76378;BME280;65200;49.500;8.654;2023-07-13T12:46:17;100595.78;;;25.41;31.46
76378;BME280;65200;49.500;8.654;2023-07-13T12:48:48;100581.91;;;25.71;30.99
76378;BME280;65200;49.500;8.654;2023-07-13T12:51:17;100595.53;;;25.27;32.46
76378;BME280;65200;49.500;8.654;2023-07-13T12:53:49;100597.44;;;25.42;33.42
76378;BME280;65200;49.500;8.654;2023-07-13T12:56:19;100597.28;;;24.98;32.68
76378;BME280;65200;49.500;8.654;2023-07-13T12:58:48;100610.22;;;24.98;32.42